Time;durP1;ratioP1;P1;durP2;ratioP2;P2;SDS_P1;SDS_P2;PMS_P1;PMS_P2;Temp;Humidity;BMP_temperature;BMP_pressure;BME280_temperature;BME280_humidity;BME280_pressure;Samples;Min_cycle;Max_cycle;Signal;HPM_P1;HPM_P2
2021/11/08 00:00:37;;;;;;;14.00;3.33;;;7.90;99.90;;;;;;5028212;28;20051;-54
2021/11/08 00:03:07;;;;;;;15.48;3.08;;;7.90;99.90;;;;;;5044493;28;20049;-56
2021/11/08 00:05:39;;;;;;;17.15;2.90;;;7.90;99.90;;;;;;5030366;28;20041;-55
2021/11/08 00:08:05;;;;;;;12.32;2.63;;;7.90;99.90;;;;;;5027825;28;20053;-54
2021/11/08 00:10:34;;;;;;;13.65;3.25;;;7.90;99.90;;;;;;5029346;28;20432;-53
2021/11/08 00:13:06;;;;;;;14.98;3.38;;;8.00;99.90;;;;;;5028277;28;20107;-54
2021/11/08 00:20:43;;;;;;;16.70;2.42;;;8.10;99.90;;;;;;5049837;28;20052;-58
2021/11/08 00:23:10;;;;;;;17.10;2.90;;;8.20;99.90;;;;;;5048338;28;20102;-58
2021/11/08 00:25:40;;;;;;;18.17;3.67;;;8.20;99.90;;;;;;5032221;28;20057;-54
2021/11/08 00:28:07;;;;;;;12.55;2.60;;;8.20;99.90;;;;;;5048334;28;20076;-58
2021/11/08 00:30:35;;;;;;;17.77;3.13;;;8.20;99.90;;;;;;5048932;28;20049;-58
2021/11/08 00:33:03;;;;;;;10.85;2.22;;;8.20;99.90;;;;;;5048444;28;20044;-58
2021/11/08 00:35:29;;;;;;;14.35;2.83;;;8.20;99.90;;;;;;5049668;28;20110;-58
2021/11/08 00:37:55;;;;;;;16.20;3.38;;;8.20;99.90;;;;;;5050187;28;20128;-58
2021/11/08 00:40:22;;;;;;;18.05;3.53;;;8.30;99.90;;;;;;5051585;28;20430;-55
2021/11/08 00:42:48;;;;;;;12.57;2.65;;;8.30;99.90;;;;;;5052665;28;20049;-55
2021/11/08 00:45:14;;;;;;;15.98;2.70;;;8.30;99.90;;;;;;5052406;28;20052;-55
2021/11/08 00:47:40;;;;;;;12.20;2.53;;;8.30;99.90;;;;;;5052222;28;20045;-55
2021/11/08 00:50:08;;;;;;;18.77;3.13;;;8.30;99.90;;;;;;5050578;28;20045;-55
2021/11/08 00:52:35;;;;;;;20.58;3.08;;;8.30;99.90;;;;;;5052434;28;20056;-56
2021/11/08 00:55:01;;;;;;;13.57;2.42;;;8.20;99.90;;;;;;5052578;28;20051;-53
2021/11/08 00:57:32;;;;;;;15.63;2.75;;;8.30;99.90;;;;;;5052835;28;20175;-53
2021/11/08 00:59:59;;;;;;;13.93;3.40;;;8.30;99.90;;;;;;5050711;28;20052;-55
2021/11/08 01:02:26;;;;;;;14.93;3.22;;;8.30;99.90;;;;;;5052007;28;20484;-53
2021/11/08 01:04:53;;;;;;;20.40;3.38;;;8.30;99.90;;;;;;5051436;28;20049;-58
2021/11/08 01:07:20;;;;;;;15.43;3.85;;;8.30;99.90;;;;;;5052478;28;20096;-57
2021/11/08 01:09:46;;;;;;;13.38;2.30;;;8.30;99.90;;;;;;5048748;28;20041;-58
2021/11/08 01:12:13;;;;;;;10.15;2.53;;;8.30;99.90;;;;;;5031364;28;20103;-58
2021/11/08 01:14:41;;;;;;;15.32;2.47;;;8.20;99.90;;;;;;5047611;28;20557;-57
2021/11/08 01:17:08;;;;;;;15.50;3.08;;;8.30;99.90;;;;;;5032887;28;20045;-57
2021/11/08 01:19:35;;;;;;;9.18;2.40;;;8.30;99.90;;;;;;5030620;28;20049;-54
2021/11/08 01:22:23;;;;;;;12.18;2.83;;;8.20;99.90;;;;;;5046318;28;20540;-54
2021/11/08 01:24:54;;;;;;;19.48;2.70;;;8.20;99.90;;;;;;5052000;28;20087;-58
2021/11/08 01:27:36;;;;;;;12.73;2.50;;;8.20;99.90;;;;;;5050126;28;20053;-52
2021/11/08 01:30:08;;;;;;;;;;;8.20;99.90;;;;;;5051933;28;20437;-53
2021/11/08 01:32:35;;;;;;;11.63;2.25;;;8.00;99.90;;;;;;5033765;28;19971;-58
2021/11/08 01:35:01;;;;;;;17.45;2.88;;;7.90;99.90;;;;;;5031770;28;20048;-58
2021/11/08 01:37:28;;;;;;;15.82;2.53;;;7.90;99.90;;;;;;5031451;28;20053;-54
2021/11/08 01:39:54;;;;;;;12.20;2.25;;;7.80;99.90;;;;;;5031159;28;20054;-54
2021/11/08 01:42:21;;;;;;;18.20;2.97;;;7.70;99.90;;;;;;5030657;28;20085;-54
2021/11/08 01:44:47;;;;;;;16.73;2.58;;;7.80;99.90;;;;;;5046330;28;20107;-56
2021/11/08 01:47:13;;;;;;;15.40;2.97;;;7.70;99.90;;;;;;5031393;28;20041;-55
2021/11/08 01:49:40;;;;;;;16.08;2.50;;;7.70;99.90;;;;;;5029101;28;20072;-52
2021/11/08 01:52:09;;;;;;;16.27;2.70;;;7.70;99.90;;;;;;5032501;28;20037;-53
2021/11/08 01:54:37;;;;;;;17.17;3.13;;;7.70;99.90;;;;;;5012893;28;20099;-54
2021/11/08 01:57:05;;;;;;;12.57;2.53;;;7.60;99.90;;;;;;5046337;28;20567;-52
2021/11/08 01:59:32;;;;;;;14.63;2.42;;;7.60;99.90;;;;;;5031452;28;20057;-51
2021/11/08 02:01:59;;;;;;;13.93;2.67;;;7.50;99.90;;;;;;5029902;28;20051;-53
2021/11/08 02:04:26;;;;;;;15.77;2.50;;;7.40;99.90;;;;;;5032300;28;20126;-53
2021/11/08 02:06:52;;;;;;;12.57;2.92;;;7.40;99.90;;;;;;5014231;28;20037;-57
2021/11/08 02:09:19;;;;;;;15.45;2.95;;;7.30;99.90;;;;;;5031985;28;20042;-58
2021/11/08 02:11:46;;;;;;;12.13;2.30;;;7.30;99.90;;;;;;5031715;28;20041;-57
2021/11/08 02:14:12;;;;;;;14.40;2.55;;;7.30;99.90;;;;;;5039773;28;20041;-57
2021/11/08 02:16:38;;;;;;;13.27;2.47;;;7.30;99.90;;;;;;5050838;28;20057;-53
2021/11/08 02:19:06;;;;;;;9.77;1.85;;;7.30;99.90;;;;;;5051176;28;20516;-53
2021/11/08 02:21:33;;;;;;;13.15;2.10;;;7.30;99.90;;;;;;5049220;28;20052;-54
2021/11/08 02:24:01;;;;;;;9.07;2.13;;;7.20;99.90;;;;;;5049695;28;20053;-53
2021/11/08 02:26:27;;;;;;;17.27;2.45;;;7.20;99.90;;;;;;5045098;28;20045;-51
2021/11/08 02:28:53;;;;;;;13.35;2.63;;;7.10;99.90;;;;;;5031213;28;20041;-55
2021/11/08 02:31:22;;;;;;;12.20;2.10;;;7.10;99.90;;;;;;5031038;28;20488;-54
2021/11/08 02:33:51;;;;;;;10.68;2.28;;;7.00;99.90;;;;;;5029641;28;20124;-55
2021/11/08 02:36:18;;;;;;;10.10;2.15;;;7.00;99.90;;;;;;5030242;28;20520;-53
2021/11/08 02:38:48;;;;;;;13.77;2.55;;;6.90;99.90;;;;;;5030589;28;20508;-55
2021/11/08 02:41:16;;;;;;;15.18;2.40;;;6.90;99.90;;;;;;5030117;28;20049;-55
2021/11/08 02:43:44;;;;;;;11.95;2.53;;;6.80;99.90;;;;;;5030771;28;20053;-54
2021/11/08 02:48:38;;;;;;;17.27;2.90;;;6.70;99.90;;;;;;5050174;28;20102;-54
2021/11/08 02:51:11;;;;;;;17.63;3.28;;;6.70;99.90;;;;;;5049029;28;20400;-51
2021/11/08 02:53:39;;;;;;;15.10;2.85;;;6.70;99.90;;;;;;5050246;28;20084;-53
2021/11/08 02:56:07;;;;;;;14.38;2.63;;;6.60;99.90;;;;;;5048787;28;20053;-53
2021/11/08 02:58:34;;;;;;;16.45;3.38;;;6.60;99.90;;;;;;5049572;28;20124;-53
2021/11/08 03:01:00;;;;;;;15.68;3.05;;;6.50;99.90;;;;;;5048402;28;20057;-54
2021/11/08 03:03:46;;;;;;;17.85;3.50;;;6.50;99.90;;;;;;5049987;28;20412;-54
2021/11/08 03:06:21;;;;;;;11.90;2.45;;;6.50;99.90;;;;;;5049621;28;20045;-58
2021/11/08 03:08:49;;;;;;;23.38;3.45;;;6.50;99.90;;;;;;5037864;28;20554;-53
2021/11/08 03:11:15;;;;;;;12.90;2.65;;;6.40;99.90;;;;;;5029703;28;20622;-54
2021/11/08 03:13:50;;;;;;;17.33;3.05;;;6.40;99.90;;;;;;5030210;28;20053;-52
2021/11/08 03:16:54;;;;;;;20.60;2.80;;;6.40;99.90;;;;;;5029650;28;20057;-55
2021/11/08 03:19:17;;;;;;;16.23;2.92;;;6.50;99.90;;;;;;5011642;28;20478;-54
2021/11/08 03:21:46;;;;;;;17.15;2.65;;;6.40;99.90;;;;;;5029691;28;20041;-54
2021/11/08 03:24:16;;;;;;;15.57;3.20;;;6.40;99.90;;;;;;5030024;28;20068;-53
2021/11/08 03:26:48;;;;;;;19.77;3.50;;;6.40;99.90;;;;;;5044713;28;20045;-52
2021/11/08 03:29:16;;;;;;;14.90;3.67;;;6.30;99.90;;;;;;5030805;28;20542;-54
2021/11/08 03:31:46;;;;;;;17.95;3.42;;;6.30;99.90;;;;;;5046456;28;20040;-52
2021/11/08 03:34:13;;;;;;;16.50;3.15;;;6.30;99.90;;;;;;5029312;28;20037;-55
2021/11/08 03:36:39;;;;;;;13.98;2.83;;;6.20;99.90;;;;;;5028276;28;20049;-51
2021/11/08 03:39:06;;;;;;;18.83;3.65;;;6.30;99.90;;;;;;5029552;28;20509;-53
2021/11/08 03:41:33;;;;;;;15.02;3.38;;;6.20;99.90;;;;;;5029685;28;20049;-54
2021/11/08 03:44:00;;;;;;;21.90;3.42;;;6.20;99.90;;;;;;5030723;28;20120;-54
2021/11/08 03:46:29;;;;;;;15.77;2.75;;;6.10;99.90;;;;;;5028061;28;20360;-53
2021/11/08 03:48:55;;;;;;;18.35;3.42;;;6.10;99.90;;;;;;5029922;28;20052;-54
2021/11/08 03:51:21;;;;;;;16.35;3.03;;;6.00;99.90;;;;;;5029339;28;20054;-53
2021/11/08 03:53:47;;;;;;;20.02;3.00;;;6.00;99.90;;;;;;5038330;28;20053;-51
2021/11/08 03:56:13;;;;;;;15.57;2.60;;;6.10;99.90;;;;;;5048148;28;20053;-51
2021/11/08 03:58:39;;;;;;;17.08;2.95;;;6.00;99.90;;;;;;5049934;28;20152;-53
2021/11/08 04:01:06;;;;;;;20.30;3.58;;;6.10;99.90;;;;;;5049939;28;20563;-53
2021/11/08 04:03:33;;;;;;;18.38;2.85;;;6.10;99.90;;;;;;5046153;28;20041;-52
2021/11/08 04:05:59;;;;;;;21.23;3.38;;;6.10;99.90;;;;;;5044811;28;20049;-54
2021/11/08 04:08:25;;;;;;;14.00;2.70;;;6.20;99.90;;;;;;5045189;28;20400;-57
2021/11/08 04:10:54;;;;;;;15.52;2.70;;;6.20;99.90;;;;;;5030523;28;20045;-57
2021/11/08 04:13:29;;;;;;;28.67;3.35;;;6.20;99.90;;;;;;5031338;28;20138;-58
2021/11/08 04:15:58;;;;;;;14.32;2.65;;;6.20;99.90;;;;;;5033570;28;20057;-58
2021/11/08 04:18:26;;;;;;;20.15;3.42;;;6.20;99.90;;;;;;5049618;28;20053;-57
2021/11/08 04:20:57;;;;;;;14.63;3.63;;;6.30;99.90;;;;;;5049175;28;20057;-58
2021/11/08 04:23:25;;;;;;;16.83;2.97;;;6.30;99.90;;;;;;5034106;28;20044;-57
2021/11/08 04:25:52;;;;;;;20.58;3.17;;;6.30;99.90;;;;;;5035085;28;20088;-58
2021/11/08 04:28:19;;;;;;;13.02;2.78;;;6.30;99.90;;;;;;5032678;28;20049;-57
2021/11/08 04:30:45;;;;;;;13.68;2.67;;;6.40;99.90;;;;;;5034180;28;20045;-57
2021/11/08 04:33:22;;;;;;;21.00;3.25;;;6.40;99.90;;;;;;5032290;28;20111;-57
2021/11/08 04:35:58;;;;;;;14.05;3.20;;;6.40;99.90;;;;;;5036095;28;20049;-58
2021/11/08 04:38:35;;;;;;;15.52;3.35;;;6.50;99.90;;;;;;5052264;28;20088;-54
2021/11/08 04:41:13;;;;;;;14.15;2.45;;;6.50;99.90;;;;;;5052782;28;20388;-54
2021/11/08 04:49:35;;;;;;;18.17;3.30;;;6.60;99.90;;;;;;5049963;28;20045;-54
2021/11/08 04:52:24;;;;;;;12.70;2.22;;;6.60;99.90;;;;;;5049779;28;20508;-53
2021/11/08 04:55:00;;;;;;;17.83;3.10;;;6.60;99.90;;;;;;5050037;28;20428;-53
2021/11/08 05:30:09;;;;;;;12.40;3.05;;;6.60;99.90;;;;;;5040212;28;20045;-52
2021/11/08 05:32:38;;;;;;;18.88;3.88;;;6.50;99.90;;;;;;5034022;28;20041;-53
2021/11/08 05:35:07;;;;;;;20.00;3.08;;;6.50;99.90;;;;;;5051618;28;20055;-52
2021/11/08 05:37:34;;;;;;;14.13;2.72;;;6.50;99.90;;;;;;5050272;28;20093;-49
2021/11/08 05:40:12;;;;;;;23.25;3.67;;;6.50;99.90;;;;;;5050002;28;20512;-52
2021/11/08 05:42:38;;;;;;;12.77;2.65;;;6.60;99.90;;;;;;5031949;28;20103;-51
2021/11/08 05:45:07;;;;;;;19.13;3.45;;;6.60;99.90;;;;;;5046638;28;20120;-53
2021/11/08 05:47:33;;;;;;;17.67;3.75;;;6.60;99.90;;;;;;5030796;28;20373;-51
2021/11/08 05:49:59;;;;;;;14.73;2.72;;;6.80;99.90;;;;;;5047023;28;20042;-54
2021/11/08 05:52:26;;;;;;;12.32;2.67;;;6.80;99.90;;;;;;5032649;28;20056;-51
2021/11/08 05:54:52;;;;;;;14.80;2.58;;;6.80;99.90;;;;;;5031918;28;20081;-57
2021/11/08 06:49:42;;;;;;;13.15;2.95;;;6.80;99.90;;;;;;5048366;28;20045;-51
2021/11/08 06:52:11;;;;;;;19.10;3.60;;;6.90;99.90;;;;;;5041358;28;20049;-57
2021/11/08 06:54:37;;;;;;;19.00;4.05;;;6.90;99.90;;;;;;5014081;28;20103;-57
2021/11/08 06:57:18;;;;;;;18.88;3.30;;;6.90;99.90;;;;;;5046989;28;20045;-58
2021/11/08 06:59:50;;;;;;;13.20;3.50;;;7.00;99.90;;;;;;5042501;28;20067;-58
2021/11/08 07:02:19;;;;;;;19.85;3.72;;;7.00;99.90;;;;;;5059744;28;20048;-59
2021/11/08 07:04:45;;;;;;;18.88;3.55;;;7.00;99.90;;;;;;5071316;28;20036;-58
2021/11/08 07:07:11;;;;;;;16.88;3.40;;;7.00;99.90;;;;;;5069611;28;20040;-57
2021/11/08 07:09:39;;;;;;;15.55;2.90;;;7.10;99.90;;;;;;5058375;28;20123;-57
2021/11/08 07:12:08;;;;;;;14.40;3.05;;;7.00;99.90;;;;;;5048095;28;20064;-57
2021/11/08 07:14:36;;;;;;;15.88;3.28;;;7.00;99.90;;;;;;5028528;28;20768;-57
2021/11/08 07:17:03;;;;;;;14.23;3.38;;;7.00;99.90;;;;;;5048675;28;20048;-57
2021/11/08 07:19:30;;;;;;;13.20;3.28;;;7.10;99.90;;;;;;5050873;28;20047;-57
2021/11/08 07:21:56;;;;;;;14.05;3.15;;;7.00;99.90;;;;;;5050406;28;20511;-56
2021/11/08 07:24:22;;;;;;;12.40;3.38;;;7.10;99.90;;;;;;5049626;28;20060;-57
2021/11/08 07:26:48;;;;;;;12.15;3.13;;;7.00;99.90;;;;;;5032005;28;20111;-56
2021/11/08 07:29:16;;;;;;;24.42;3.95;;;7.10;99.90;;;;;;5029115;28;20445;-57
2021/11/08 07:31:43;;;;;;;15.65;3.00;;;7.10;99.90;;;;;;5050284;28;20045;-58
2021/11/08 07:34:10;;;;;;;15.05;3.72;;;7.20;99.90;;;;;;5056971;28;20392;-58
2021/11/08 07:36:37;;;;;;;14.65;3.00;;;7.20;99.90;;;;;;5042593;28;20045;-57
2021/11/08 07:39:05;;;;;;;18.83;3.78;;;7.20;99.90;;;;;;5063260;28;20127;-57
2021/11/08 07:41:32;;;;;;;12.73;3.80;;;7.20;99.90;;;;;;5058417;28;20324;-57
2021/11/08 07:43:59;;;;;;;13.32;3.17;;;7.30;99.90;;;;;;5054874;28;20381;-56
2021/11/08 07:46:25;;;;;;;16.45;4.00;;;7.30;99.90;;;;;;5039194;28;20117;-56
2021/11/08 07:48:52;;;;;;;11.82;3.17;;;7.30;99.90;;;;;;5053823;28;20033;-58
2021/11/08 07:51:19;;;;;;;16.25;3.50;;;7.30;99.90;;;;;;5071395;28;20086;-58
2021/11/08 07:53:47;;;;;;;18.88;3.35;;;7.40;99.90;;;;;;5059691;28;20120;-54
2021/11/08 07:56:13;;;;;;;17.50;3.78;;;7.50;99.90;;;;;;5052518;28;20044;-53
2021/11/08 07:58:40;;;;;;;17.58;3.50;;;7.70;99.90;;;;;;5049340;28;20440;-53
2021/11/08 08:01:07;;;;;;;14.85;3.30;;;7.80;99.90;;;;;;5054244;28;20041;-54
2021/11/08 08:03:33;;;;;;;11.65;3.60;;;7.90;99.90;;;;;;5051578;28;20037;-53
2021/11/08 08:06:01;;;;;;;14.15;3.40;;;7.90;99.90;;;;;;5051727;28;20492;-53
2021/11/08 08:08:27;;;;;;;11.65;3.30;;;8.00;99.90;;;;;;5051116;28;20138;-54
2021/11/08 08:10:54;;;;;;;15.02;3.38;;;8.10;99.90;;;;;;5057196;28;20045;-53
2021/11/08 08:13:25;;;;;;;11.00;3.70;;;8.10;99.90;;;;;;5057672;28;20080;-54
2021/11/08 08:15:58;;;;;;;16.85;3.75;;;8.20;99.90;;;;;;5052638;28;20037;-53
2021/11/08 08:18:26;;;;;;;15.10;3.25;;;8.20;99.90;;;;;;5046606;28;20049;-53
2021/11/08 08:20:52;;;;;;;21.63;4.85;;;8.30;99.90;;;;;;5052107;28;20049;-53
2021/11/08 08:23:18;;;;;;;14.25;3.28;;;8.40;99.90;;;;;;5051946;28;20041;-53
2021/11/08 08:25:44;;;;;;;11.55;2.85;;;8.30;99.90;;;;;;5034426;28;20041;-54
2021/11/08 08:28:11;;;;;;;13.90;3.50;;;8.40;99.90;;;;;;5049889;28;20399;-54
2021/11/08 08:30:37;;;;;;;15.45;4.05;;;8.40;99.90;;;;;;5052238;28;20446;-57
2021/11/08 08:33:03;;;;;;;19.42;3.75;;;8.40;99.90;;;;;;5052439;28;20041;-58
2021/11/08 08:35:30;;;;;;;12.88;2.75;;;8.40;99.90;;;;;;5049020;28;20044;-57
2021/11/08 08:37:56;;;;;;;14.75;3.55;;;8.40;99.90;;;;;;5063072;28;20058;-58
2021/11/08 08:40:22;;;;;;;18.02;3.30;;;8.50;99.90;;;;;;5059925;28;20075;-58
2021/11/08 08:42:49;;;;;;;14.25;3.03;;;8.60;99.90;;;;;;5056627;28;20043;-58
2021/11/08 08:45:15;;;;;;;12.55;3.10;;;8.70;99.90;;;;;;5057084;28;20066;-58
2021/11/08 08:47:41;;;;;;;11.20;2.88;;;8.80;99.90;;;;;;5062305;28;20047;-58
2021/11/08 08:50:09;;;;;;;12.20;3.05;;;9.00;99.90;;;;;;5061163;28;20111;-57
2021/11/08 08:52:35;;;;;;;18.40;3.60;;;9.20;99.90;;;;;;5058296;28;20049;-57
2021/11/08 08:55:01;;;;;;;12.45;3.17;;;9.40;99.90;;;;;;5076200;28;20053;-58
2021/11/08 08:57:27;;;;;;;14.27;2.85;;;9.50;99.90;;;;;;5055898;28;20440;-58
2021/11/08 08:59:53;;;;;;;15.45;3.00;;;9.60;99.90;;;;;;5053046;28;20504;-51
2021/11/08 09:02:19;;;;;;;14.38;2.72;;;9.70;99.90;;;;;;5049876;28;20149;-53
2021/11/08 09:04:46;;;;;;;15.82;2.83;;;9.80;99.90;;;;;;5066802;28;20041;-52
2021/11/08 09:07:15;;;;;;;15.60;2.85;;;9.80;99.90;;;;;;5061206;28;20521;-55
2021/11/08 09:09:42;;;;;;;13.38;3.35;;;9.90;99.90;;;;;;5046561;28;20117;-54
2021/11/08 09:12:09;;;;;;;13.40;3.20;;;9.90;99.90;;;;;;5047988;28;20060;-54
2021/11/08 09:14:38;;;;;;;14.20;2.85;;;9.90;99.90;;;;;;5061018;28;20040;-53
2021/11/08 09:17:05;;;;;;;16.90;3.05;;;9.90;99.90;;;;;;5086877;28;20048;-54
2021/11/08 09:19:31;;;;;;;11.57;2.97;;;9.90;99.90;;;;;;5055536;28;20112;-51
2021/11/08 09:21:58;;;;;;;15.30;2.72;;;9.90;99.90;;;;;;5045812;28;20174;-51
2021/11/08 09:24:24;;;;;;;15.25;2.58;;;9.90;99.90;;;;;;5071669;28;20043;-54
2021/11/08 09:26:51;;;;;;;13.35;3.05;;;10.00;99.90;;;;;;5058161;28;20113;-53
2021/11/08 09:29:20;;;;;;;9.77;2.05;;;10.10;99.90;;;;;;5050022;28;20060;-51
2021/11/08 09:31:47;;;;;;;13.65;2.55;;;10.20;99.90;;;;;;5050318;28;20044;-51
2021/11/08 09:34:16;;;;;;;12.07;2.00;;;10.30;99.90;;;;;;5050542;28;20120;-52
2021/11/08 09:36:43;;;;;;;11.23;1.95;;;10.40;99.90;;;;;;5051427;28;20046;-54
2021/11/08 09:39:22;;;;;;;10.48;2.08;;;10.30;99.90;;;;;;5050827;28;20059;-54
2021/11/08 09:41:50;;;;;;;14.85;2.80;;;10.40;99.90;;;;;;5065255;28;20041;-55
2021/11/08 09:44:17;;;;;;;12.07;2.50;;;10.40;99.90;;;;;;5047848;28;20501;-53
2021/11/08 09:46:43;;;;;;;13.25;2.80;;;10.30;99.90;;;;;;5051033;28;20037;-53
2021/11/08 09:49:10;;;;;;;15.57;3.05;;;10.30;99.90;;;;;;5054134;28;20395;-58
2021/11/08 09:51:41;;;;;;;12.57;2.92;;;10.40;99.90;;;;;;5052711;28;20143;-57
2021/11/08 09:54:10;;;;;;;17.23;2.95;;;10.40;99.90;;;;;;5047149;28;20037;-57
2021/11/08 09:56:40;;;;;;;18.75;3.35;;;10.40;99.90;;;;;;5045259;28;20457;-58
2021/11/08 09:59:07;;;;;;;11.38;2.85;;;10.60;99.90;;;;;;5056305;28;20044;-58
2021/11/08 10:01:37;;;;;;;14.88;2.95;;;10.80;99.90;;;;;;5071622;28;20049;-57
2021/11/08 10:04:05;;;;;;;11.85;2.50;;;10.90;99.90;;;;;;5052425;28;20041;-57
2021/11/08 10:06:32;;;;;;;9.60;2.35;;;10.80;99.90;;;;;;5045806;28;20522;-57
2021/11/08 10:08:59;;;;;;;13.75;2.55;;;10.80;99.90;;;;;;5065320;28;20079;-58
2021/11/08 10:11:26;;;;;;;12.55;2.50;;;10.80;99.90;;;;;;5053568;28;20105;-58
2021/11/08 10:13:53;;;;;;;13.65;2.92;;;10.80;99.90;;;;;;5066947;28;20044;-58
2021/11/08 10:16:28;;;;;;;12.63;2.58;;;10.80;99.90;;;;;;5054508;28;20156;-57
2021/11/08 10:18:57;;;;;;;9.20;1.98;;;10.80;99.90;;;;;;5058304;28;20128;-58
2021/11/08 10:21:28;;;;;;;14.55;2.67;;;10.80;99.90;;;;;;5057019;28;20041;-53
2021/11/08 10:23:57;;;;;;;13.45;2.25;;;10.70;99.90;;;;;;5070322;28;20041;-54
2021/11/08 10:26:27;;;;;;;13.18;2.67;;;10.70;99.90;;;;;;5068283;28;20052;-54
2021/11/08 10:28:58;;;;;;;19.05;3.00;;;10.70;99.90;;;;;;5057564;28;20041;-53
2021/11/08 10:31:36;;;;;;;13.65;2.50;;;10.70;99.90;;;;;;5049722;28;20545;-53
2021/11/08 10:34:05;;;;;;;12.38;2.83;;;10.60;99.90;;;;;;5048079;28;20075;-54
2021/11/08 10:36:31;;;;;;;13.85;2.38;;;10.60;99.90;;;;;;5048102;28;20348;-55
2021/11/08 10:39:00;;;;;;;9.30;1.73;;;10.60;99.90;;;;;;5055908;28;20109;-54
2021/11/08 10:41:30;;;;;;;10.98;2.80;;;10.50;99.90;;;;;;5050550;28;20052;-55
2021/11/08 10:44:03;;;;;;;13.48;2.50;;;10.50;99.90;;;;;;5068704;28;20044;-54
2021/11/08 10:46:35;;;;;;;11.73;2.78;;;10.50;99.90;;;;;;5068080;28;20036;-54
2021/11/08 10:49:06;;;;;;;21.90;3.03;;;10.40;99.90;;;;;;5062200;28;20052;-55
2021/11/08 10:51:35;;;;;;;16.10;3.10;;;10.40;99.90;;;;;;5048213;28;20456;-54
2021/11/08 10:54:07;;;;;;;13.13;2.63;;;10.40;99.90;;;;;;5027377;28;20053;-54
2021/11/08 10:56:44;;;;;;;13.18;3.03;;;10.40;99.90;;;;;;5049771;28;20062;-54
2021/11/08 10:59:18;;;;;;;12.57;2.92;;;10.30;99.90;;;;;;5049696;28;20040;-55
2021/11/08 11:01:48;;;;;;;13.50;3.28;;;10.30;99.90;;;;;;5049959;28;20040;-53
2021/11/08 11:04:16;;;;;;;12.80;2.47;;;10.30;99.90;;;;;;5047620;28;20174;-55
2021/11/08 11:06:45;;;;;;;12.68;3.00;;;10.30;99.90;;;;;;5049313;28;20123;-53
2021/11/08 11:09:30;;;;;;;13.80;2.65;;;10.20;99.90;;;;;;5047278;28;20070;-54
2021/11/08 11:12:18;;;;;;;11.95;2.47;;;10.20;99.90;;;;;;5046855;28;20063;-52
2021/11/08 11:14:49;;;;;;;15.52;2.88;;;10.20;99.90;;;;;;5048128;28;20127;-53
2021/11/08 11:17:24;;;;;;;15.32;2.55;;;10.20;99.90;;;;;;5049712;28;20044;-54
2021/11/08 11:19:51;;;;;;;14.63;2.20;;;10.30;99.90;;;;;;5048763;28;20565;-54
2021/11/08 11:22:20;;;;;;;12.18;2.05;;;10.30;99.90;;;;;;5035094;28;20040;-51
2021/11/08 11:24:50;;;;;;;14.25;2.47;;;10.20;99.90;;;;;;5040880;28;20530;-53
2021/11/08 11:27:38;;;;;;;12.35;2.20;;;10.40;99.90;;;;;;5038441;28;20044;-53
2021/11/08 11:30:18;;;;;;;12.77;2.40;;;10.60;99.90;;;;;;5049514;28;20045;-54
2021/11/08 11:32:54;;;;;;;11.90;2.38;;;10.90;99.90;;;;;;5050492;28;20083;-53
2021/11/08 11:35:20;;;;;;;8.15;2.10;;;11.30;99.90;;;;;;5042733;28;20049;-53
2021/11/08 11:37:59;;;;;;;8.93;2.40;;;11.70;99.90;;;;;;5047020;28;20056;-55
2021/11/08 11:40:27;;;;;;;8.68;2.03;;;11.80;99.90;;;;;;5013014;28;20067;-52
2021/11/08 11:43:00;;;;;;;11.95;2.42;;;12.00;99.90;;;;;;5048682;28;20049;-53
2021/11/08 11:45:29;;;;;;;7.85;1.90;;;12.00;99.90;;;;;;5047818;28;20049;-53
2021/11/08 11:48:05;;;;;;;9.35;2.05;;;12.00;99.90;;;;;;5048525;28;20139;-55
2021/11/08 11:50:34;;;;;;;6.70;1.60;;;12.00;99.90;;;;;;5029488;28;20212;-54
2021/11/08 11:53:01;;;;;;;9.57;1.70;;;11.90;99.90;;;;;;5027667;28;20080;-57
2021/11/08 11:55:28;;;;;;;10.48;1.83;;;11.90;99.90;;;;;;5038086;28;20416;-57
2021/11/08 11:57:56;;;;;;;7.70;1.80;;;12.00;99.90;;;;;;5044344;28;20041;-58
2021/11/08 12:00:29;;;;;;;8.07;1.60;;;11.90;99.90;;;;;;5047058;28;20063;-57
2021/11/08 12:02:56;;;;;;;7.13;1.80;;;11.90;99.90;;;;;;5047004;28;20484;-58
2021/11/08 12:05:22;;;;;;;6.20;1.42;;;11.80;99.90;;;;;;5057749;28;20056;-57
2021/11/08 12:07:50;;;;;;;7.05;1.63;;;11.80;99.90;;;;;;5043689;28;20047;-58
2021/11/08 12:10:17;;;;;;;12.38;2.22;;;11.80;99.90;;;;;;5047756;28;20083;-58
2021/11/08 12:12:43;;;;;;;7.80;2.28;;;11.80;99.90;;;;;;5047950;28;20049;-58
2021/11/08 12:15:12;;;;;;;11.25;1.67;;;12.00;99.90;;;;;;5047412;28;20041;-57
2021/11/08 12:17:44;;;;;;;12.02;1.88;;;12.00;99.90;;;;;;5044231;28;20052;-58
2021/11/08 12:20:18;;;;;;;12.60;2.30;;;12.00;99.90;;;;;;5046541;28;20095;-58
2021/11/08 12:22:45;;;;;;;11.88;1.95;;;12.00;99.90;;;;;;5046783;28;20037;-57
2021/11/08 12:25:14;;;;;;;9.25;1.67;;;12.10;99.90;;;;;;5046820;28;20045;-57
2021/11/08 12:27:48;;;;;;;10.00;1.83;;;12.00;99.90;;;;;;5047409;28;20382;-57
2021/11/08 12:30:14;;;;;;;8.80;1.70;;;11.90;99.90;;;;;;5044830;28;20084;-58
2021/11/08 12:32:55;;;;;;;7.75;1.50;;;11.70;99.90;;;;;;5045600;28;20099;-57
2021/11/08 12:35:37;;;;;;;8.98;2.08;;;11.50;99.90;;;;;;5049769;28;20053;-58
2021/11/08 12:38:33;;;;;;;7.75;1.80;;;11.30;99.90;;;;;;5050694;28;20447;-59
2021/11/08 12:41:26;;;;;;;12.32;1.77;;;11.10;99.90;;;;;;5048407;28;20120;-57
2021/11/08 12:43:59;;;;;;;;;;;11.00;99.90;;;;;;5052173;28;20098;-57
2021/11/08 12:46:42;;;;;;;8.70;1.55;;;10.80;99.90;;;;;;5048099;28;20019;-57
2021/11/08 12:49:22;;;;;;;6.13;1.48;;;10.80;99.90;;;;;;5049471;28;20045;-58
2021/11/08 12:51:58;;;;;;;8.07;1.73;;;10.80;99.90;;;;;;5049668;28;20404;-57
2021/11/08 12:54:26;;;;;;;11.82;2.00;;;11.00;99.90;;;;;;5048858;28;20056;-57
2021/11/08 12:56:53;;;;;;;10.70;2.10;;;11.50;99.90;;;;;;5050141;28;20041;-57
2021/11/08 12:59:24;;;;;;;7.28;1.30;;;12.20;99.90;;;;;;5066640;28;20057;-57
2021/11/08 13:02:00;;;;;;;5.72;1.27;;;12.50;99.90;;;;;;5030194;28;20040;-57
2021/11/08 13:04:42;;;;;;;5.75;1.23;;;12.50;99.90;;;;;;5047507;28;20036;-57
2021/11/08 13:07:11;;;;;;;8.35;1.33;;;12.40;99.90;;;;;;5047815;28;20060;-56
2021/11/08 13:09:43;;;;;;;8.45;1.77;;;12.30;99.90;;;;;;5047332;28;20079;-56
2021/11/08 13:12:13;;;;;;;4.93;1.40;;;12.10;99.90;;;;;;5048700;28;20586;-58
2021/11/08 13:14:39;;;;;;;10.60;1.60;;;12.50;99.90;;;;;;5048852;28;20036;-55
2021/11/08 13:17:09;;;;;;;7.70;1.50;;;13.00;99.90;;;;;;5042599;28;20082;-55
2021/11/08 13:19:59;;;;;;;5.63;1.10;;;13.30;99.90;;;;;;5059787;28;20045;-53
2021/11/08 13:22:38;;;;;;;8.80;1.40;;;13.10;99.90;;;;;;5046976;28;20040;-56
2021/11/08 13:25:09;;;;;;;6.53;1.50;;;12.90;99.90;;;;;;5042756;28;20107;-57
2021/11/08 13:27:37;;;;;;;4.28;1.42;;;12.80;99.90;;;;;;5033302;28;20522;-57
2021/11/08 13:30:08;;;;;;;7.03;1.05;;;13.10;99.90;;;;;;5048073;28;20066;-57
2021/11/08 13:32:35;;;;;;;3.55;1.05;;;13.20;99.90;;;;;;5056030;28;20098;-57
2021/11/08 13:35:24;;;;;;;7.38;1.65;;;12.90;99.90;;;;;;5051586;28;20323;-58
2021/11/08 13:37:51;;;;;;;7.30;1.33;;;12.60;99.90;;;;;;5040719;28;20412;-54
2021/11/08 13:40:21;;;;;;;6.63;1.70;;;12.30;99.90;;;;;;5051162;28;20103;-52
2021/11/08 13:42:51;;;;;;;4.47;1.20;;;12.10;99.90;;;;;;5049318;28;20044;-55
2021/11/08 13:45:20;;;;;;;6.95;1.65;;;11.90;99.90;;;;;;5044640;28;20465;-54
2021/11/08 13:47:49;;;;;;;4.43;1.05;;;11.80;99.90;;;;;;5062902;28;20052;-55
2021/11/08 13:50:20;;;;;;;5.28;0.95;;;11.70;99.90;;;;;;5064278;28;20059;-54
2021/11/08 13:52:48;;;;;;;3.33;1.10;;;11.50;99.90;;;;;;5053691;28;20059;-54
2021/11/08 13:55:15;;;;;;;5.90;1.00;;;11.50;99.90;;;;;;5057379;28;20535;-54
2021/11/08 13:57:43;;;;;;;6.40;1.50;;;11.50;99.90;;;;;;5051327;28;20071;-54
2021/11/08 14:00:16;;;;;;;4.50;0.88;;;11.40;99.90;;;;;;5051479;28;20068;-55
2021/11/08 14:02:43;;;;;;;8.10;0.90;;;11.40;99.90;;;;;;5051296;28;20045;-55
2021/11/08 14:05:11;;;;;;;9.23;1.17;;;11.40;99.90;;;;;;5057872;28;20049;-54
2021/11/08 14:07:38;;;;;;;3.95;1.60;;;11.40;99.90;;;;;;5065726;28;20032;-53
2021/11/08 14:10:10;;;;;;;5.80;1.40;;;11.40;99.90;;;;;;5050057;28;20048;-54
2021/11/08 14:12:38;;;;;;;5.47;1.10;;;11.40;99.90;;;;;;5058722;28;20480;-53
2021/11/08 14:15:06;;;;;;;2.25;0.80;;;11.40;99.90;;;;;;5052855;28;20043;-57
2021/11/08 14:17:34;;;;;;;3.35;0.68;;;11.30;99.90;;;;;;5059670;28;20510;-58
2021/11/08 14:20:08;;;;;;;5.10;0.95;;;11.10;99.90;;;;;;5059132;28;20514;-54
2021/11/08 14:22:37;;;;;;;2.97;0.70;;;11.10;99.90;;;;;;5057030;28;20041;-54
2021/11/08 14:25:07;;;;;;;1.55;0.73;;;11.00;99.90;;;;;;5047722;28;20090;-55
2021/11/08 14:27:36;;;;;;;3.78;1.08;;;11.00;99.90;;;;;;5051329;28;20098;-57
2021/11/08 14:30:21;;;;;;;1.35;0.40;;;11.30;99.90;;;;;;5053408;28;20041;-57
2021/11/08 14:32:50;;;;;;;2.08;0.70;;;11.50;99.90;;;;;;5054770;28;20033;-53
2021/11/08 14:35:19;;;;;;;4.88;0.77;;;11.90;99.90;;;;;;5049594;28;20037;-53